sensor_id;sensor_type;location;lat;lon;timestamp;P1;durP1;ratioP1;P2;durP2;ratioP2
5349;SDS011;2697;42.144;24.794;2022-10-19T00:02:23;14.03;;;7.40;;
5349;SDS011;2697;42.144;24.794;2022-10-19T00:04:49;14.63;;;5.23;;
5349;SDS011;2697;42.144;24.794;2022-10-19T00:07:14;16.87;;;6.07;;
5349;SDS011;2697;42.144;24.794;2022-10-19T00:09:41;5.80;;;4.03;;
5349;SDS011;2697;42.144;24.794;2022-10-19T00:12:07;12.67;;;6.00;;
5349;SDS011;2697;42.144;24.794;2022-10-19T00:14:32;10.57;;;4.90;;
5349;SDS011;2697;42.144;24.794;2022-10-19T00:16:58;5.13;;;3.67;;
5349;SDS011;2697;42.144;24.794;2022-10-19T00:19:24;11.60;;;4.70;;
5349;SDS011;2697;42.144;24.794;2022-10-19T00:21:51;10.03;;;5.90;;
5349;SDS011;2697;42.144;24.794;2022-10-19T00:24:17;9.30;;;4.60;;
5349;SDS011;2697;42.144;24.794;2022-10-19T00:26:42;11.53;;;4.57;;
5349;SDS011;2697;42.144;24.794;2022-10-19T00:29:09;6.70;;;4.60;;
5349;SDS011;2697;42.144;24.794;2022-10-19T00:31:35;7.13;;;4.53;;
5349;SDS011;2697;42.144;24.794;2022-10-19T00:34:01;9.20;;;4.13;;
5349;SDS011;2697;42.144;24.794;2022-10-19T00:36:28;8.33;;;5.40;;
5349;SDS011;2697;42.144;24.794;2022-10-19T00:38:56;8.73;;;4.07;;
5349;SDS011;2697;42.144;24.794;2022-10-19T00:41:22;6.97;;;4.83;;
5349;SDS011;2697;42.144;24.794;2022-10-19T00:43:54;28.77;;;4.53;;
5349;SDS011;2697;42.144;24.794;2022-10-19T00:46:22;10.53;;;4.50;;
5349;SDS011;2697;42.144;24.794;2022-10-19T00:48:48;10.10;;;4.10;;
5349;SDS011;2697;42.144;24.794;2022-10-19T00:51:16;5.87;;;4.50;;
5349;SDS011;2697;42.144;24.794;2022-10-19T00:53:42;7.40;;;4.70;;
5349;SDS011;2697;42.144;24.794;2022-10-19T00:56:09;5.50;;;4.10;;
5349;SDS011;2697;42.144;24.794;2022-10-19T00:58:38;10.70;;;4.70;;
5349;SDS011;2697;42.144;24.794;2022-10-19T01:01:05;10.73;;;4.40;;
5349;SDS011;2697;42.144;24.794;2022-10-19T01:03:35;10.90;;;3.97;;
5349;SDS011;2697;42.144;24.794;2022-10-19T01:06:00;16.30;;;4.73;;
5349;SDS011;2697;42.144;24.794;2022-10-19T01:08:27;7.00;;;4.83;;
5349;SDS011;2697;42.144;24.794;2022-10-19T01:11:03;8.40;;;4.57;;
5349;SDS011;2697;42.144;24.794;2022-10-19T01:14:15;12.90;;;5.27;;
5349;SDS011;2697;42.144;24.794;2022-10-19T01:16:49;9.20;;;3.73;;
5349;SDS011;2697;42.144;24.794;2022-10-19T01:22:55;91.17;;;4.97;;
5349;SDS011;2697;42.144;24.794;2022-10-19T01:34:24;5.83;;;3.43;;
5349;SDS011;2697;42.144;24.794;2022-10-19T01:44:54;8.77;;;4.43;;
5349;SDS011;2697;42.144;24.794;2022-10-19T01:50:10;5.30;;;3.60;;
5349;SDS011;2697;42.144;24.794;2022-10-19T01:52:40;4.30;;;3.73;;
5349;SDS011;2697;42.144;24.794;2022-10-19T01:55:08;7.47;;;4.60;;
5349;SDS011;2697;42.144;24.794;2022-10-19T01:57:41;8.93;;;3.87;;
5349;SDS011;2697;42.144;24.794;2022-10-19T02:00:10;5.10;;;3.47;;
5349;SDS011;2697;42.144;24.794;2022-10-19T02:02:39;7.73;;;4.97;;
5349;SDS011;2697;42.144;24.794;2022-10-19T02:05:07;5.33;;;4.23;;
5349;SDS011;2697;42.144;24.794;2022-10-19T02:07:36;9.00;;;4.33;;
5349;SDS011;2697;42.144;24.794;2022-10-19T02:10:04;8.27;;;4.27;;
5349;SDS011;2697;42.144;24.794;2022-10-19T02:12:30;10.17;;;4.07;;
5349;SDS011;2697;42.144;24.794;2022-10-19T02:14:58;8.30;;;3.60;;
5349;SDS011;2697;42.144;24.794;2022-10-19T02:17:31;18.33;;;3.57;;
5349;SDS011;2697;42.144;24.794;2022-10-19T02:20:00;7.07;;;4.40;;
5349;SDS011;2697;42.144;24.794;2022-10-19T02:22:28;9.50;;;3.83;;
5349;SDS011;2697;42.144;24.794;2022-10-19T02:24:54;14.70;;;4.33;;
5349;SDS011;2697;42.144;24.794;2022-10-19T02:27:19;12.33;;;4.07;;
5349;SDS011;2697;42.144;24.794;2022-10-19T02:29:45;9.03;;;4.13;;
5349;SDS011;2697;42.144;24.794;2022-10-19T02:32:10;19.97;;;4.23;;
5349;SDS011;2697;42.144;24.794;2022-10-19T02:34:36;3.60;;;2.77;;
5349;SDS011;2697;42.144;24.794;2022-10-19T02:37:03;5.60;;;3.83;;
5349;SDS011;2697;42.144;24.794;2022-10-19T02:39:30;4.17;;;2.70;;
5349;SDS011;2697;42.144;24.794;2022-10-19T02:42:00;6.17;;;4.17;;
5349;SDS011;2697;42.144;24.794;2022-10-19T02:44:33;6.30;;;3.63;;
5349;SDS011;2697;42.144;24.794;2022-10-19T02:47:17;5.50;;;3.70;;
5349;SDS011;2697;42.144;24.794;2022-10-19T02:49:46;11.07;;;4.70;;
5349;SDS011;2697;42.144;24.794;2022-10-19T02:52:12;5.67;;;3.97;;
5349;SDS011;2697;42.144;24.794;2022-10-19T02:54:39;5.33;;;3.53;;
5349;SDS011;2697;42.144;24.794;2022-10-19T02:57:14;4.10;;;3.63;;
5349;SDS011;2697;42.144;24.794;2022-10-19T02:59:47;7.03;;;4.10;;
5349;SDS011;2697;42.144;24.794;2022-10-19T03:02:13;10.73;;;3.60;;
5349;SDS011;2697;42.144;24.794;2022-10-19T03:04:40;11.83;;;4.00;;
5349;SDS011;2697;42.144;24.794;2022-10-19T03:07:07;3.10;;;2.60;;
5349;SDS011;2697;42.144;24.794;2022-10-19T03:09:33;8.30;;;4.27;;
5349;SDS011;2697;42.144;24.794;2022-10-19T03:11:58;6.70;;;3.77;;
5349;SDS011;2697;42.144;24.794;2022-10-19T03:14:23;6.80;;;4.07;;
5349;SDS011;2697;42.144;24.794;2022-10-19T03:16:49;13.20;;;3.90;;
5349;SDS011;2697;42.144;24.794;2022-10-19T03:19:14;8.60;;;5.13;;
5349;SDS011;2697;42.144;24.794;2022-10-19T03:21:39;8.53;;;3.73;;
5349;SDS011;2697;42.144;24.794;2022-10-19T03:24:05;10.40;;;4.00;;
5349;SDS011;2697;42.144;24.794;2022-10-19T03:26:30;12.93;;;4.70;;
5349;SDS011;2697;42.144;24.794;2022-10-19T03:28:56;9.97;;;4.23;;
5349;SDS011;2697;42.144;24.794;2022-10-19T03:31:21;14.53;;;3.77;;
5349;SDS011;2697;42.144;24.794;2022-10-19T03:33:46;11.73;;;3.63;;
5349;SDS011;2697;42.144;24.794;2022-10-19T03:36:20;3.63;;;2.73;;
5349;SDS011;2697;42.144;24.794;2022-10-19T03:39:06;5.47;;;3.50;;
5349;SDS011;2697;42.144;24.794;2022-10-19T03:41:35;4.30;;;3.60;;
5349;SDS011;2697;42.144;24.794;2022-10-19T03:44:01;5.60;;;4.20;;
5349;SDS011;2697;42.144;24.794;2022-10-19T03:46:27;13.80;;;4.17;;
5349;SDS011;2697;42.144;24.794;2022-10-19T03:48:52;7.40;;;4.47;;
5349;SDS011;2697;42.144;24.794;2022-10-19T03:51:19;8.60;;;5.20;;
5349;SDS011;2697;42.144;24.794;2022-10-19T03:53:57;12.00;;;3.27;;
5349;SDS011;2697;42.144;24.794;2022-10-19T03:56:24;6.23;;;3.67;;
5349;SDS011;2697;42.144;24.794;2022-10-19T03:58:51;6.33;;;3.90;;
5349;SDS011;2697;42.144;24.794;2022-10-19T04:01:25;10.20;;;4.40;;
5349;SDS011;2697;42.144;24.794;2022-10-19T04:03:56;10.30;;;4.03;;
5349;SDS011;2697;42.144;24.794;2022-10-19T04:06:27;5.27;;;3.77;;
5349;SDS011;2697;42.144;24.794;2022-10-19T04:08:58;3.03;;;2.80;;
5349;SDS011;2697;42.144;24.794;2022-10-19T04:11:25;6.93;;;3.10;;
5349;SDS011;2697;42.144;24.794;2022-10-19T04:13:53;7.60;;;3.03;;
5349;SDS011;2697;42.144;24.794;2022-10-19T04:16:20;6.83;;;4.43;;
5349;SDS011;2697;42.144;24.794;2022-10-19T04:18:46;4.53;;;3.37;;
5349;SDS011;2697;42.144;24.794;2022-10-19T04:21:24;24.67;;;3.07;;
5349;SDS011;2697;42.144;24.794;2022-10-19T04:23:50;9.07;;;3.60;;
5349;SDS011;2697;42.144;24.794;2022-10-19T04:26:18;4.80;;;4.00;;
5349;SDS011;2697;42.144;24.794;2022-10-19T04:28:43;37.77;;;4.30;;
5349;SDS011;2697;42.144;24.794;2022-10-19T04:31:09;10.47;;;5.50;;
5349;SDS011;2697;42.144;24.794;2022-10-19T04:33:35;7.60;;;3.40;;
5349;SDS011;2697;42.144;24.794;2022-10-19T04:36:01;36.17;;;3.63;;
5349;SDS011;2697;42.144;24.794;2022-10-19T04:38:29;5.07;;;3.97;;
5349;SDS011;2697;42.144;24.794;2022-10-19T04:40:59;7.20;;;4.60;;
5349;SDS011;2697;42.144;24.794;2022-10-19T04:43:25;11.20;;;4.13;;
5349;SDS011;2697;42.144;24.794;2022-10-19T04:45:51;16.57;;;4.37;;
5349;SDS011;2697;42.144;24.794;2022-10-19T04:48:16;9.67;;;4.57;;
5349;SDS011;2697;42.144;24.794;2022-10-19T04:50:42;9.57;;;3.90;;
5349;SDS011;2697;42.144;24.794;2022-10-19T04:53:07;6.33;;;3.67;;
5349;SDS011;2697;42.144;24.794;2022-10-19T04:55:32;14.23;;;5.83;;
5349;SDS011;2697;42.144;24.794;2022-10-19T04:57:58;12.80;;;5.30;;
5349;SDS011;2697;42.144;24.794;2022-10-19T05:00:23;9.97;;;3.87;;
5349;SDS011;2697;42.144;24.794;2022-10-19T05:02:48;11.93;;;5.70;;
5349;SDS011;2697;42.144;24.794;2022-10-19T05:05:14;8.90;;;5.43;;
5349;SDS011;2697;42.144;24.794;2022-10-19T05:07:40;11.33;;;4.53;;
5349;SDS011;2697;42.144;24.794;2022-10-19T05:10:05;12.50;;;4.50;;
5349;SDS011;2697;42.144;24.794;2022-10-19T05:12:35;6.20;;;3.50;;
5349;SDS011;2697;42.144;24.794;2022-10-19T05:15:01;16.87;;;4.90;;
5349;SDS011;2697;42.144;24.794;2022-10-19T05:17:29;7.73;;;3.90;;
5349;SDS011;2697;42.144;24.794;2022-10-19T05:19:56;11.43;;;4.97;;
5349;SDS011;2697;42.144;24.794;2022-10-19T05:22:21;13.97;;;4.80;;
5349;SDS011;2697;42.144;24.794;2022-10-19T05:24:47;28.00;;;5.03;;
5349;SDS011;2697;42.144;24.794;2022-10-19T05:27:12;9.17;;;4.90;;
5349;SDS011;2697;42.144;24.794;2022-10-19T05:29:37;8.00;;;5.20;;
5349;SDS011;2697;42.144;24.794;2022-10-19T05:32:03;23.17;;;5.20;;
5349;SDS011;2697;42.144;24.794;2022-10-19T05:34:28;21.43;;;7.17;;
5349;SDS011;2697;42.144;24.794;2022-10-19T05:36:54;13.90;;;4.70;;
5349;SDS011;2697;42.144;24.794;2022-10-19T05:39:20;13.63;;;6.23;;
5349;SDS011;2697;42.144;24.794;2022-10-19T05:41:45;10.70;;;5.67;;
5349;SDS011;2697;42.144;24.794;2022-10-19T05:44:15;16.50;;;5.70;;
5349;SDS011;2697;42.144;24.794;2022-10-19T05:46:45;16.80;;;7.63;;
5349;SDS011;2697;42.144;24.794;2022-10-19T05:49:11;10.10;;;6.20;;
5349;SDS011;2697;42.144;24.794;2022-10-19T05:51:37;13.33;;;4.80;;
5349;SDS011;2697;42.144;24.794;2022-10-19T05:54:03;8.33;;;5.20;;
5349;SDS011;2697;42.144;24.794;2022-10-19T05:56:30;15.07;;;5.43;;
5349;SDS011;2697;42.144;24.794;2022-10-19T05:59:00;9.67;;;5.10;;
5349;SDS011;2697;42.144;24.794;2022-10-19T06:01:27;24.23;;;3.90;;
5349;SDS011;2697;42.144;24.794;2022-10-19T06:03:55;9.23;;;4.40;;
5349;SDS011;2697;42.144;24.794;2022-10-19T06:06:21;5.43;;;3.53;;
5349;SDS011;2697;42.144;24.794;2022-10-19T06:08:48;13.07;;;4.23;;
5349;SDS011;2697;42.144;24.794;2022-10-19T06:11:16;8.17;;;5.07;;
5349;SDS011;2697;42.144;24.794;2022-10-19T06:13:44;7.40;;;3.90;;
5349;SDS011;2697;42.144;24.794;2022-10-19T06:16:12;7.17;;;4.27;;
5349;SDS011;2697;42.144;24.794;2022-10-19T06:18:39;13.90;;;5.40;;
5349;SDS011;2697;42.144;24.794;2022-10-19T06:21:06;96.60;;;6.43;;
5349;SDS011;2697;42.144;24.794;2022-10-19T06:23:34;12.30;;;5.00;;
5349;SDS011;2697;42.144;24.794;2022-10-19T06:26:04;17.93;;;5.10;;
5349;SDS011;2697;42.144;24.794;2022-10-19T06:28:31;17.77;;;6.73;;
5349;SDS011;2697;42.144;24.794;2022-10-19T06:30:57;6.97;;;5.00;;
5349;SDS011;2697;42.144;24.794;2022-10-19T06:33:24;10.70;;;4.70;;
5349;SDS011;2697;42.144;24.794;2022-10-19T06:35:53;12.07;;;4.57;;
5349;SDS011;2697;42.144;24.794;2022-10-19T06:38:19;15.33;;;6.03;;
5349;SDS011;2697;42.144;24.794;2022-10-19T06:40:44;8.77;;;5.33;;
5349;SDS011;2697;42.144;24.794;2022-10-19T06:43:10;6.43;;;4.40;;
5349;SDS011;2697;42.144;24.794;2022-10-19T06:45:37;9.00;;;4.33;;
5349;SDS011;2697;42.144;24.794;2022-10-19T06:48:03;7.23;;;3.50;;
5349;SDS011;2697;42.144;24.794;2022-10-19T06:50:29;14.27;;;5.00;;
5349;SDS011;2697;42.144;24.794;2022-10-19T06:52:56;8.47;;;4.30;;
5349;SDS011;2697;42.144;24.794;2022-10-19T06:55:22;6.97;;;3.90;;
5349;SDS011;2697;42.144;24.794;2022-10-19T06:57:48;6.50;;;3.63;;
5349;SDS011;2697;42.144;24.794;2022-10-19T07:00:13;4.40;;;3.20;;
5349;SDS011;2697;42.144;24.794;2022-10-19T07:02:39;5.23;;;3.10;;
5349;SDS011;2697;42.144;24.794;2022-10-19T07:05:04;23.80;;;3.67;;
5349;SDS011;2697;42.144;24.794;2022-10-19T07:07:31;5.73;;;3.90;;
5349;SDS011;2697;42.144;24.794;2022-10-19T07:09:56;3.63;;;3.17;;
5349;SDS011;2697;42.144;24.794;2022-10-19T07:12:21;13.27;;;3.97;;
5349;SDS011;2697;42.144;24.794;2022-10-19T07:14:47;10.03;;;3.30;;
5349;SDS011;2697;42.144;24.794;2022-10-19T07:17:12;7.00;;;3.30;;
5349;SDS011;2697;42.144;24.794;2022-10-19T07:19:38;14.43;;;2.93;;
5349;SDS011;2697;42.144;24.794;2022-10-19T07:22:03;8.93;;;4.50;;
5349;SDS011;2697;42.144;24.794;2022-10-19T07:24:29;3.80;;;3.40;;
5349;SDS011;2697;42.144;24.794;2022-10-19T07:26:54;4.53;;;3.13;;
5349;SDS011;2697;42.144;24.794;2022-10-19T07:29:20;6.20;;;3.87;;
5349;SDS011;2697;42.144;24.794;2022-10-19T07:31:46;32.17;;;3.70;;
5349;SDS011;2697;42.144;24.794;2022-10-19T07:34:12;19.47;;;4.50;;
5349;SDS011;2697;42.144;24.794;2022-10-19T07:36:38;6.70;;;3.53;;
5349;SDS011;2697;42.144;24.794;2022-10-19T07:39:08;5.00;;;3.40;;
5349;SDS011;2697;42.144;24.794;2022-10-19T07:41:34;32.37;;;4.40;;
5349;SDS011;2697;42.144;24.794;2022-10-19T07:44:00;4.93;;;3.40;;
5349;SDS011;2697;42.144;24.794;2022-10-19T07:46:26;7.70;;;5.10;;
5349;SDS011;2697;42.144;24.794;2022-10-19T07:48:53;9.77;;;3.57;;
5349;SDS011;2697;42.144;24.794;2022-10-19T07:51:19;6.37;;;3.17;;
5349;SDS011;2697;42.144;24.794;2022-10-19T07:53:46;7.57;;;4.60;;
5349;SDS011;2697;42.144;24.794;2022-10-19T07:56:13;5.17;;;2.93;;
5349;SDS011;2697;42.144;24.794;2022-10-19T07:58:49;7.90;;;3.40;;
5349;SDS011;2697;42.144;24.794;2022-10-19T08:01:16;16.27;;;5.20;;
5349;SDS011;2697;42.144;24.794;2022-10-19T08:03:44;9.40;;;3.27;;
5349;SDS011;2697;42.144;24.794;2022-10-19T08:06:11;3.27;;;2.60;;
5349;SDS011;2697;42.144;24.794;2022-10-19T08:08:39;7.07;;;4.10;;
5349;SDS011;2697;42.144;24.794;2022-10-19T08:11:08;4.37;;;2.83;;
5349;SDS011;2697;42.144;24.794;2022-10-19T08:13:37;3.73;;;3.23;;
5349;SDS011;2697;42.144;24.794;2022-10-19T08:16:03;5.50;;;3.00;;
5349;SDS011;2697;42.144;24.794;2022-10-19T08:18:29;5.00;;;3.10;;
5349;SDS011;2697;42.144;24.794;2022-10-19T08:20:55;6.20;;;2.67;;
5349;SDS011;2697;42.144;24.794;2022-10-19T08:23:20;8.70;;;2.87;;
5349;SDS011;2697;42.144;24.794;2022-10-19T08:25:47;12.03;;;2.90;;
5349;SDS011;2697;42.144;24.794;2022-10-19T08:28:12;5.23;;;3.17;;
5349;SDS011;2697;42.144;24.794;2022-10-19T08:30:38;7.90;;;3.93;;
5349;SDS011;2697;42.144;24.794;2022-10-19T08:33:03;7.70;;;2.53;;
5349;SDS011;2697;42.144;24.794;2022-10-19T08:35:31;4.33;;;2.80;;
5349;SDS011;2697;42.144;24.794;2022-10-19T08:37:56;8.63;;;3.87;;
5349;SDS011;2697;42.144;24.794;2022-10-19T08:40:24;4.97;;;3.23;;
5349;SDS011;2697;42.144;24.794;2022-10-19T08:49:03;5.23;;;3.20;;
5349;SDS011;2697;42.144;24.794;2022-10-19T08:51:31;4.00;;;2.77;;
5349;SDS011;2697;42.144;24.794;2022-10-19T08:54:02;4.73;;;3.53;;
5349;SDS011;2697;42.144;24.794;2022-10-19T08:56:37;5.73;;;3.30;;
5349;SDS011;2697;42.144;24.794;2022-10-19T09:01:47;17.03;;;4.10;;
5349;SDS011;2697;42.144;24.794;2022-10-19T09:04:41;5.70;;;3.90;;
5349;SDS011;2697;42.144;24.794;2022-10-19T09:07:26;15.17;;;3.43;;
5349;SDS011;2697;42.144;24.794;2022-10-19T09:12:48;7.43;;;4.00;;
5349;SDS011;2697;42.144;24.794;2022-10-19T09:15:47;11.70;;;3.50;;
5349;SDS011;2697;42.144;24.794;2022-10-19T09:18:13;13.70;;;3.20;;
5349;SDS011;2697;42.144;24.794;2022-10-19T09:20:59;5.57;;;3.27;;
5349;SDS011;2697;42.144;24.794;2022-10-19T09:23:29;3.50;;;2.90;;
5349;SDS011;2697;42.144;24.794;2022-10-19T09:26:00;11.70;;;4.37;;
5349;SDS011;2697;42.144;24.794;2022-10-19T09:31:02;9.27;;;4.43;;
5349;SDS011;2697;42.144;24.794;2022-10-19T09:33:32;11.20;;;3.90;;
5349;SDS011;2697;42.144;24.794;2022-10-19T09:36:01;8.10;;;3.27;;
5349;SDS011;2697;42.144;24.794;2022-10-19T09:38:28;8.13;;;3.33;;
5349;SDS011;2697;42.144;24.794;2022-10-19T09:40:56;7.93;;;3.03;;
5349;SDS011;2697;42.144;24.794;2022-10-19T09:43:23;6.83;;;3.33;;
5349;SDS011;2697;42.144;24.794;2022-10-19T09:46:02;6.53;;;3.57;;
5349;SDS011;2697;42.144;24.794;2022-10-19T09:48:36;6.10;;;3.67;;
5349;SDS011;2697;42.144;24.794;2022-10-19T09:51:12;8.27;;;3.10;;
5349;SDS011;2697;42.144;24.794;2022-10-19T09:53:46;10.90;;;4.10;;
5349;SDS011;2697;42.144;24.794;2022-10-19T09:56:18;5.70;;;3.73;;
5349;SDS011;2697;42.144;24.794;2022-10-19T09:58:46;3.73;;;3.07;;
5349;SDS011;2697;42.144;24.794;2022-10-19T10:04:19;2.70;;;2.50;;
5349;SDS011;2697;42.144;24.794;2022-10-19T10:06:45;16.63;;;3.40;;
5349;SDS011;2697;42.144;24.794;2022-10-19T10:09:21;7.37;;;3.67;;
5349;SDS011;2697;42.144;24.794;2022-10-19T10:11:50;5.57;;;3.67;;
5349;SDS011;2697;42.144;24.794;2022-10-19T10:16:48;4.80;;;2.80;;
5349;SDS011;2697;42.144;24.794;2022-10-19T10:19:19;3.60;;;2.90;;
5349;SDS011;2697;42.144;24.794;2022-10-19T10:21:51;4.80;;;2.80;;
5349;SDS011;2697;42.144;24.794;2022-10-19T10:24:22;3.20;;;2.90;;
5349;SDS011;2697;42.144;24.794;2022-10-19T10:29:25;10.63;;;2.80;;
5349;SDS011;2697;42.144;24.794;2022-10-19T10:31:59;6.63;;;3.37;;
5349;SDS011;2697;42.144;24.794;2022-10-19T10:37:06;10.20;;;2.57;;
5349;SDS011;2697;42.144;24.794;2022-10-19T10:39:40;16.20;;;2.90;;
5349;SDS011;2697;42.144;24.794;2022-10-19T10:42:08;5.03;;;2.97;;
5349;SDS011;2697;42.144;24.794;2022-10-19T10:44:43;5.80;;;3.50;;
5349;SDS011;2697;42.144;24.794;2022-10-19T10:47:15;3.67;;;2.83;;
5349;SDS011;2697;42.144;24.794;2022-10-19T10:49:42;4.93;;;3.20;;
5349;SDS011;2697;42.144;24.794;2022-10-19T10:52:09;8.57;;;2.80;;
5349;SDS011;2697;42.144;24.794;2022-10-19T10:54:37;5.73;;;2.60;;
5349;SDS011;2697;42.144;24.794;2022-10-19T10:59:44;3.63;;;2.10;;
5349;SDS011;2697;42.144;24.794;2022-10-19T11:02:29;16.53;;;5.63;;
5349;SDS011;2697;42.144;24.794;2022-10-19T11:07:53;5.70;;;3.47;;
5349;SDS011;2697;42.144;24.794;2022-10-19T11:10:28;10.13;;;2.50;;
5349;SDS011;2697;42.144;24.794;2022-10-19T11:18:36;3.47;;;1.70;;
5349;SDS011;2697;42.144;24.794;2022-10-19T11:21:08;4.57;;;2.67;;
5349;SDS011;2697;42.144;24.794;2022-10-19T11:24:12;13.17;;;3.37;;
5349;SDS011;2697;42.144;24.794;2022-10-19T11:26:40;4.53;;;2.37;;
5349;SDS011;2697;42.144;24.794;2022-10-19T11:32:01;20.40;;;3.30;;
5349;SDS011;2697;42.144;24.794;2022-10-19T11:34:43;3.97;;;2.10;;
5349;SDS011;2697;42.144;24.794;2022-10-19T11:51:24;2.90;;;1.93;;
5349;SDS011;2697;42.144;24.794;2022-10-19T12:02:17;21.73;;;3.73;;
5349;SDS011;2697;42.144;24.794;2022-10-19T12:05:03;4.03;;;2.50;;
5349;SDS011;2697;42.144;24.794;2022-10-19T12:10:37;4.13;;;2.17;;
5349;SDS011;2697;42.144;24.794;2022-10-19T12:13:11;9.80;;;1.70;;
5349;SDS011;2697;42.144;24.794;2022-10-19T12:15:47;4.80;;;2.97;;
5349;SDS011;2697;42.144;24.794;2022-10-19T12:18:27;4.87;;;2.03;;
5349;SDS011;2697;42.144;24.794;2022-10-19T12:20:58;9.53;;;2.90;;
5349;SDS011;2697;42.144;24.794;2022-10-19T12:25:59;8.93;;;2.03;;
5349;SDS011;2697;42.144;24.794;2022-10-19T12:28:28;20.67;;;2.70;;
5349;SDS011;2697;42.144;24.794;2022-10-19T12:30:56;2.33;;;2.13;;
5349;SDS011;2697;42.144;24.794;2022-10-19T12:33:44;1.70;;;1.60;;
5349;SDS011;2697;42.144;24.794;2022-10-19T12:36:35;3.43;;;1.80;;
5349;SDS011;2697;42.144;24.794;2022-10-19T12:47:30;5.17;;;3.10;;
5349;SDS011;2697;42.144;24.794;2022-10-19T12:49:56;3.70;;;2.57;;
5349;SDS011;2697;42.144;24.794;2022-10-19T12:57:47;1.80;;;1.70;;
5349;SDS011;2697;42.144;24.794;2022-10-19T13:00:23;3.70;;;2.27;;
5349;SDS011;2697;42.144;24.794;2022-10-19T13:02:58;2.07;;;1.93;;
5349;SDS011;2697;42.144;24.794;2022-10-19T13:05:53;7.80;;;2.43;;
5349;SDS011;2697;42.144;24.794;2022-10-19T13:08:23;2.93;;;1.90;;
5349;SDS011;2697;42.144;24.794;2022-10-19T13:11:09;4.87;;;2.77;;
5349;SDS011;2697;42.144;24.794;2022-10-19T13:21:50;1.80;;;1.70;;
5349;SDS011;2697;42.144;24.794;2022-10-19T13:24:19;2.77;;;2.27;;
5349;SDS011;2697;42.144;24.794;2022-10-19T13:40:36;7.60;;;3.20;;
5349;SDS011;2697;42.144;24.794;2022-10-19T13:43:11;5.50;;;2.70;;
5349;SDS011;2697;42.144;24.794;2022-10-19T13:51:23;11.13;;;2.30;;
5349;SDS011;2697;42.144;24.794;2022-10-19T14:10:42;6.07;;;3.27;;
5349;SDS011;2697;42.144;24.794;2022-10-19T14:13:12;17.40;;;2.50;;
5349;SDS011;2697;42.144;24.794;2022-10-19T14:15:39;3.57;;;2.53;;
5349;SDS011;2697;42.144;24.794;2022-10-19T14:18:22;3.70;;;2.83;;
5349;SDS011;2697;42.144;24.794;2022-10-19T14:20:59;2.83;;;2.57;;
5349;SDS011;2697;42.144;24.794;2022-10-19T14:23:34;11.57;;;2.20;;
5349;SDS011;2697;42.144;24.794;2022-10-19T14:26:17;3.00;;;2.40;;
5349;SDS011;2697;42.144;24.794;2022-10-19T14:28:48;1.87;;;1.77;;
5349;SDS011;2697;42.144;24.794;2022-10-19T14:31:17;5.60;;;3.03;;
5349;SDS011;2697;42.144;24.794;2022-10-19T14:33:46;6.13;;;3.37;;
5349;SDS011;2697;42.144;24.794;2022-10-19T14:36:19;11.53;;;3.20;;
5349;SDS011;2697;42.144;24.794;2022-10-19T14:38:47;25.53;;;2.53;;
5349;SDS011;2697;42.144;24.794;2022-10-19T14:41:17;6.40;;;2.97;;
5349;SDS011;2697;42.144;24.794;2022-10-19T14:43:44;10.63;;;2.97;;
5349;SDS011;2697;42.144;24.794;2022-10-19T14:46:11;16.93;;;3.30;;
5349;SDS011;2697;42.144;24.794;2022-10-19T14:48:47;7.60;;;3.20;;
5349;SDS011;2697;42.144;24.794;2022-10-19T14:57:00;6.87;;;2.47;;
5349;SDS011;2697;42.144;24.794;2022-10-19T14:59:42;17.47;;;3.70;;
5349;SDS011;2697;42.144;24.794;2022-10-19T15:02:16;6.93;;;3.43;;
5349;SDS011;2697;42.144;24.794;2022-10-19T15:04:45;8.70;;;3.33;;
5349;SDS011;2697;42.144;24.794;2022-10-19T15:07:16;16.07;;;3.33;;
5349;SDS011;2697;42.144;24.794;2022-10-19T15:09:54;5.03;;;2.63;;
5349;SDS011;2697;42.144;24.794;2022-10-19T15:12:25;6.23;;;2.20;;
5349;SDS011;2697;42.144;24.794;2022-10-19T15:20:28;2.67;;;2.43;;
5349;SDS011;2697;42.144;24.794;2022-10-19T15:26:38;4.47;;;3.10;;
5349;SDS011;2697;42.144;24.794;2022-10-19T15:29:17;13.53;;;4.90;;
5349;SDS011;2697;42.144;24.794;2022-10-19T15:31:47;12.60;;;4.63;;
5349;SDS011;2697;42.144;24.794;2022-10-19T15:34:21;18.70;;;3.83;;
5349;SDS011;2697;42.144;24.794;2022-10-19T15:36:57;11.97;;;4.63;;
5349;SDS011;2697;42.144;24.794;2022-10-19T15:39:31;7.50;;;3.87;;
5349;SDS011;2697;42.144;24.794;2022-10-19T15:42:41;12.33;;;3.87;;
5349;SDS011;2697;42.144;24.794;2022-10-19T15:44:46;6.60;;;3.90;;
5349;SDS011;2697;42.144;24.794;2022-10-19T15:52:17;10.20;;;5.07;;
5349;SDS011;2697;42.144;24.794;2022-10-19T15:54:48;15.70;;;5.33;;
5349;SDS011;2697;42.144;24.794;2022-10-19T15:57:33;8.70;;;4.80;;
5349;SDS011;2697;42.144;24.794;2022-10-19T16:00:10;9.20;;;3.60;;
5349;SDS011;2697;42.144;24.794;2022-10-19T16:02:37;13.23;;;5.80;;
5349;SDS011;2697;42.144;24.794;2022-10-19T16:05:03;5.50;;;3.30;;
5349;SDS011;2697;42.144;24.794;2022-10-19T16:07:30;8.40;;;3.30;;
5349;SDS011;2697;42.144;24.794;2022-10-19T16:09:57;5.43;;;3.63;;
5349;SDS011;2697;42.144;24.794;2022-10-19T16:12:23;31.73;;;4.93;;
5349;SDS011;2697;42.144;24.794;2022-10-19T16:14:50;7.50;;;4.13;;
5349;SDS011;2697;42.144;24.794;2022-10-19T16:17:16;15.03;;;4.30;;
5349;SDS011;2697;42.144;24.794;2022-10-19T16:19:42;18.03;;;3.67;;
5349;SDS011;2697;42.144;24.794;2022-10-19T16:22:08;19.07;;;3.70;;
5349;SDS011;2697;42.144;24.794;2022-10-19T16:24:33;10.60;;;4.53;;
5349;SDS011;2697;42.144;24.794;2022-10-19T16:26:59;23.37;;;6.17;;
5349;SDS011;2697;42.144;24.794;2022-10-19T16:29:24;15.40;;;5.00;;
5349;SDS011;2697;42.144;24.794;2022-10-19T16:31:49;6.03;;;3.97;;
5349;SDS011;2697;42.144;24.794;2022-10-19T16:34:15;26.83;;;5.07;;
5349;SDS011;2697;42.144;24.794;2022-10-19T16:36:41;5.67;;;3.50;;
5349;SDS011;2697;42.144;24.794;2022-10-19T16:39:06;23.17;;;6.20;;
5349;SDS011;2697;42.144;24.794;2022-10-19T16:41:31;47.47;;;5.40;;
5349;SDS011;2697;42.144;24.794;2022-10-19T16:43:57;41.70;;;6.13;;
5349;SDS011;2697;42.144;24.794;2022-10-19T16:46:23;19.50;;;5.70;;
5349;SDS011;2697;42.144;24.794;2022-10-19T16:48:49;41.47;;;5.87;;
5349;SDS011;2697;42.144;24.794;2022-10-19T16:51:19;9.20;;;5.30;;
5349;SDS011;2697;42.144;24.794;2022-10-19T16:53:50;15.53;;;4.70;;
5349;SDS011;2697;42.144;24.794;2022-10-19T16:56:17;33.97;;;6.70;;
5349;SDS011;2697;42.144;24.794;2022-10-19T16:58:43;9.77;;;4.20;;
5349;SDS011;2697;42.144;24.794;2022-10-19T17:01:09;71.17;;;8.00;;
5349;SDS011;2697;42.144;24.794;2022-10-19T17:03:36;20.87;;;6.83;;
5349;SDS011;2697;42.144;24.794;2022-10-19T17:06:02;10.90;;;7.20;;
5349;SDS011;2697;42.144;24.794;2022-10-19T17:08:28;21.40;;;6.30;;
5349;SDS011;2697;42.144;24.794;2022-10-19T17:10:55;13.47;;;5.80;;
5349;SDS011;2697;42.144;24.794;2022-10-19T17:13:20;15.40;;;7.73;;
5349;SDS011;2697;42.144;24.794;2022-10-19T17:15:45;53.33;;;10.10;;
5349;SDS011;2697;42.144;24.794;2022-10-19T17:18:14;8.90;;;4.10;;
5349;SDS011;2697;42.144;24.794;2022-10-19T17:20:39;13.60;;;4.73;;
5349;SDS011;2697;42.144;24.794;2022-10-19T17:23:04;20.43;;;5.70;;
5349;SDS011;2697;42.144;24.794;2022-10-19T17:25:30;12.93;;;5.87;;
5349;SDS011;2697;42.144;24.794;2022-10-19T17:27:55;5.73;;;4.67;;
5349;SDS011;2697;42.144;24.794;2022-10-19T17:30:20;11.17;;;5.43;;
5349;SDS011;2697;42.144;24.794;2022-10-19T17:32:46;16.60;;;7.17;;
5349;SDS011;2697;42.144;24.794;2022-10-19T17:35:11;8.60;;;5.73;;
5349;SDS011;2697;42.144;24.794;2022-10-19T17:37:37;11.60;;;6.33;;
5349;SDS011;2697;42.144;24.794;2022-10-19T17:40:02;22.63;;;7.03;;
5349;SDS011;2697;42.144;24.794;2022-10-19T17:42:28;30.13;;;7.23;;
5349;SDS011;2697;42.144;24.794;2022-10-19T17:44:55;12.57;;;5.60;;
5349;SDS011;2697;42.144;24.794;2022-10-19T17:47:20;18.60;;;6.40;;
5349;SDS011;2697;42.144;24.794;2022-10-19T17:49:45;29.10;;;11.20;;
5349;SDS011;2697;42.144;24.794;2022-10-19T17:52:11;18.43;;;8.43;;
5349;SDS011;2697;42.144;24.794;2022-10-19T17:54:36;32.97;;;9.87;;
5349;SDS011;2697;42.144;24.794;2022-10-19T17:57:02;55.70;;;10.90;;